sensor_id;sensor_type;location;lat;lon;timestamp;temperature;humidity
16863;DHT22;52193;48.216;-1.698;2023-04-30T00:00:07;19.50;94.50
16863;DHT22;52193;48.216;-1.698;2023-04-30T00:02:35;19.40;94.60
16863;DHT22;52193;48.216;-1.698;2023-04-30T00:05:04;19.40;94.60
16863;DHT22;52193;48.216;-1.698;2023-04-30T00:07:31;19.40;94.70
16863;DHT22;52193;48.216;-1.698;2023-04-30T00:09:58;19.40;94.70
16863;DHT22;52193;48.216;-1.698;2023-04-30T00:12:25;19.40;94.70
16863;DHT22;52193;48.216;-1.698;2023-04-30T00:14:52;19.40;94.70
16863;DHT22;52193;48.216;-1.698;2023-04-30T00:17:20;19.40;94.70
16863;DHT22;52193;48.216;-1.698;2023-04-30T00:19:48;19.40;94.70
16863;DHT22;52193;48.216;-1.698;2023-04-30T00:22:16;19.40;94.80
16863;DHT22;52193;48.216;-1.698;2023-04-30T00:24:43;19.40;94.80
16863;DHT22;52193;48.216;-1.698;2023-04-30T00:27:10;19.30;94.90
16863;DHT22;52193;48.216;-1.698;2023-04-30T00:29:37;19.30;94.90
16863;DHT22;52193;48.216;-1.698;2023-04-30T00:32:04;19.40;95.00
16863;DHT22;52193;48.216;-1.698;2023-04-30T00:34:31;19.40;95.00
16863;DHT22;52193;48.216;-1.698;2023-04-30T00:36:58;19.40;95.20
16863;DHT22;52193;48.216;-1.698;2023-04-30T00:39:27;19.40;95.00
16863;DHT22;52193;48.216;-1.698;2023-04-30T00:41:53;19.40;95.00
16863;DHT22;52193;48.216;-1.698;2023-04-30T00:44:20;19.40;95.00
16863;DHT22;52193;48.216;-1.698;2023-04-30T00:46:47;19.30;94.90
16863;DHT22;52193;48.216;-1.698;2023-04-30T00:49:14;19.30;95.00
16863;DHT22;52193;48.216;-1.698;2023-04-30T00:51:41;19.30;95.10
16863;DHT22;52193;48.216;-1.698;2023-04-30T00:54:10;19.30;95.20
16863;DHT22;52193;48.216;-1.698;2023-04-30T00:56:38;19.30;95.20
16863;DHT22;52193;48.216;-1.698;2023-04-30T00:59:05;19.30;95.20
16863;DHT22;52193;48.216;-1.698;2023-04-30T01:01:32;19.20;95.20
16863;DHT22;52193;48.216;-1.698;2023-04-30T01:03:59;19.20;95.30
16863;DHT22;52193;48.216;-1.698;2023-04-30T01:06:27;19.20;95.30
16863;DHT22;52193;48.216;-1.698;2023-04-30T01:08:54;19.20;95.30
16863;DHT22;52193;48.216;-1.698;2023-04-30T01:11:27;19.20;95.30
16863;DHT22;52193;48.216;-1.698;2023-04-30T01:14:08;19.10;95.40
16863;DHT22;52193;48.216;-1.698;2023-04-30T01:16:42;19.10;95.40
16863;DHT22;52193;48.216;-1.698;2023-04-30T01:19:31;19.00;95.40
16863;DHT22;52193;48.216;-1.698;2023-04-30T01:22:03;19.10;95.50
16863;DHT22;52193;48.216;-1.698;2023-04-30T01:24:44;19.10;95.40
16863;DHT22;52193;48.216;-1.698;2023-04-30T01:27:24;19.00;95.40
16863;DHT22;52193;48.216;-1.698;2023-04-30T01:29:57;19.00;95.50
16863;DHT22;52193;48.216;-1.698;2023-04-30T01:32:25;18.90;95.50
16863;DHT22;52193;48.216;-1.698;2023-04-30T01:34:52;18.90;95.50
16863;DHT22;52193;48.216;-1.698;2023-04-30T01:37:23;18.80;95.50
16863;DHT22;52193;48.216;-1.698;2023-04-30T01:40:13;18.80;95.70
16863;DHT22;52193;48.216;-1.698;2023-04-30T01:42:52;18.70;95.80
16863;DHT22;52193;48.216;-1.698;2023-04-30T01:45:36;18.70;95.80
16863;DHT22;52193;48.216;-1.698;2023-04-30T01:48:17;18.60;95.70
16863;DHT22;52193;48.216;-1.698;2023-04-30T01:50:48;18.70;95.80
16863;DHT22;52193;48.216;-1.698;2023-04-30T01:53:20;18.70;95.80
16863;DHT22;52193;48.216;-1.698;2023-04-30T01:55:51;18.60;95.80
16863;DHT22;52193;48.216;-1.698;2023-04-30T01:58:23;18.60;95.80
16863;DHT22;52193;48.216;-1.698;2023-04-30T02:00:51;18.50;95.70
16863;DHT22;52193;48.216;-1.698;2023-04-30T02:03:18;18.50;95.80
16863;DHT22;52193;48.216;-1.698;2023-04-30T02:05:46;18.50;95.70
16863;DHT22;52193;48.216;-1.698;2023-04-30T02:08:13;18.50;95.80
16863;DHT22;52193;48.216;-1.698;2023-04-30T02:10:40;18.40;95.70
16863;DHT22;52193;48.216;-1.698;2023-04-30T02:13:07;18.50;95.80
16863;DHT22;52193;48.216;-1.698;2023-04-30T02:15:34;18.40;95.70
16863;DHT22;52193;48.216;-1.698;2023-04-30T02:18:03;18.40;95.80
16863;DHT22;52193;48.216;-1.698;2023-04-30T02:20:29;18.40;95.80
16863;DHT22;52193;48.216;-1.698;2023-04-30T02:22:56;18.40;95.90
16863;DHT22;52193;48.216;-1.698;2023-04-30T02:25:23;18.30;95.90
16863;DHT22;52193;48.216;-1.698;2023-04-30T02:27:50;18.40;95.90
16863;DHT22;52193;48.216;-1.698;2023-04-30T02:30:17;18.30;95.90
16863;DHT22;52193;48.216;-1.698;2023-04-30T02:32:45;18.30;95.90
16863;DHT22;52193;48.216;-1.698;2023-04-30T02:35:13;18.30;95.80
16863;DHT22;52193;48.216;-1.698;2023-04-30T02:37:40;18.20;95.80
16863;DHT22;52193;48.216;-1.698;2023-04-30T02:40:08;18.20;95.80
16863;DHT22;52193;48.216;-1.698;2023-04-30T02:42:36;18.30;95.80
16863;DHT22;52193;48.216;-1.698;2023-04-30T02:45:03;18.20;95.70
16863;DHT22;52193;48.216;-1.698;2023-04-30T02:47:30;18.10;95.70
16863;DHT22;52193;48.216;-1.698;2023-04-30T02:49:57;18.10;95.80
16863;DHT22;52193;48.216;-1.698;2023-04-30T02:52:25;18.10;95.80
16863;DHT22;52193;48.216;-1.698;2023-04-30T02:54:52;18.00;95.80
16863;DHT22;52193;48.216;-1.698;2023-04-30T02:57:19;18.00;95.70
16863;DHT22;52193;48.216;-1.698;2023-04-30T02:59:46;18.00;95.70
16863;DHT22;52193;48.216;-1.698;2023-04-30T03:02:13;18.00;95.80
16863;DHT22;52193;48.216;-1.698;2023-04-30T03:04:40;18.00;95.70
16863;DHT22;52193;48.216;-1.698;2023-04-30T03:07:07;18.00;95.70
16863;DHT22;52193;48.216;-1.698;2023-04-30T03:09:35;17.90;95.70
16863;DHT22;52193;48.216;-1.698;2023-04-30T03:12:03;17.90;95.70
16863;DHT22;52193;48.216;-1.698;2023-04-30T03:14:30;17.90;95.60
16863;DHT22;52193;48.216;-1.698;2023-04-30T03:16:57;17.90;95.60
16863;DHT22;52193;48.216;-1.698;2023-04-30T03:19:24;17.90;95.60
16863;DHT22;52193;48.216;-1.698;2023-04-30T03:21:51;17.80;95.50
16863;DHT22;52193;48.216;-1.698;2023-04-30T03:24:18;17.80;95.50
16863;DHT22;52193;48.216;-1.698;2023-04-30T03:26:46;17.80;95.50
16863;DHT22;52193;48.216;-1.698;2023-04-30T03:29:13;17.80;95.50
16863;DHT22;52193;48.216;-1.698;2023-04-30T03:31:40;17.70;95.50
16863;DHT22;52193;48.216;-1.698;2023-04-30T03:34:07;17.70;95.40
16863;DHT22;52193;48.216;-1.698;2023-04-30T03:36:34;17.60;95.40
16863;DHT22;52193;48.216;-1.698;2023-04-30T03:39:01;17.60;95.40
16863;DHT22;52193;48.216;-1.698;2023-04-30T03:41:28;17.60;95.40
16863;DHT22;52193;48.216;-1.698;2023-04-30T03:43:56;17.60;95.50
16863;DHT22;52193;48.216;-1.698;2023-04-30T03:46:23;17.60;95.40
16863;DHT22;52193;48.216;-1.698;2023-04-30T03:48:50;17.60;95.40
16863;DHT22;52193;48.216;-1.698;2023-04-30T03:51:18;17.50;95.30
16863;DHT22;52193;48.216;-1.698;2023-04-30T03:53:46;17.50;95.60
16863;DHT22;52193;48.216;-1.698;2023-04-30T03:56:13;17.50;95.40
16863;DHT22;52193;48.216;-1.698;2023-04-30T03:58:40;17.40;95.30
16863;DHT22;52193;48.216;-1.698;2023-04-30T04:01:08;17.40;95.30
16863;DHT22;52193;48.216;-1.698;2023-04-30T04:03:35;17.40;95.30
16863;DHT22;52193;48.216;-1.698;2023-04-30T04:06:02;17.40;95.30
16863;DHT22;52193;48.216;-1.698;2023-04-30T04:08:30;17.40;95.30
16863;DHT22;52193;48.216;-1.698;2023-04-30T04:10:57;17.40;95.30
16863;DHT22;52193;48.216;-1.698;2023-04-30T04:13:24;17.40;95.30
16863;DHT22;52193;48.216;-1.698;2023-04-30T04:15:51;17.30;95.20
16863;DHT22;52193;48.216;-1.698;2023-04-30T04:18:19;17.30;95.20
16863;DHT22;52193;48.216;-1.698;2023-04-30T04:20:46;17.30;95.30
16863;DHT22;52193;48.216;-1.698;2023-04-30T04:23:13;17.30;95.20
16863;DHT22;52193;48.216;-1.698;2023-04-30T04:25:40;17.30;95.20
16863;DHT22;52193;48.216;-1.698;2023-04-30T04:28:08;17.30;95.20
16863;DHT22;52193;48.216;-1.698;2023-04-30T04:30:35;17.30;95.20
16863;DHT22;52193;48.216;-1.698;2023-04-30T04:33:02;17.30;95.50
16863;DHT22;52193;48.216;-1.698;2023-04-30T04:35:31;17.20;95.30
16863;DHT22;52193;48.216;-1.698;2023-04-30T04:37:59;17.30;95.40
16863;DHT22;52193;48.216;-1.698;2023-04-30T04:40:26;17.30;95.50
16863;DHT22;52193;48.216;-1.698;2023-04-30T04:42:53;17.30;95.60
16863;DHT22;52193;48.216;-1.698;2023-04-30T04:45:20;17.30;95.70
16863;DHT22;52193;48.216;-1.698;2023-04-30T04:47:48;17.40;95.80
16863;DHT22;52193;48.216;-1.698;2023-04-30T04:50:15;17.40;95.90
16863;DHT22;52193;48.216;-1.698;2023-04-30T04:52:44;17.40;96.00
16863;DHT22;52193;48.216;-1.698;2023-04-30T04:55:11;17.50;96.00
16863;DHT22;52193;48.216;-1.698;2023-04-30T04:57:37;17.50;96.10
16863;DHT22;52193;48.216;-1.698;2023-04-30T05:00:06;17.50;96.20
16863;DHT22;52193;48.216;-1.698;2023-04-30T05:02:34;17.50;96.20
16863;DHT22;52193;48.216;-1.698;2023-04-30T05:05:01;17.50;96.30
16863;DHT22;52193;48.216;-1.698;2023-04-30T05:07:28;17.50;96.40
16863;DHT22;52193;48.216;-1.698;2023-04-30T05:09:56;17.50;96.40
16863;DHT22;52193;48.216;-1.698;2023-04-30T05:12:23;17.50;96.30
16863;DHT22;52193;48.216;-1.698;2023-04-30T05:14:50;17.50;96.30
16863;DHT22;52193;48.216;-1.698;2023-04-30T05:17:17;17.60;96.40
16863;DHT22;52193;48.216;-1.698;2023-04-30T05:19:44;17.60;96.40
16863;DHT22;52193;48.216;-1.698;2023-04-30T05:22:12;17.50;96.40
16863;DHT22;52193;48.216;-1.698;2023-04-30T05:24:39;17.50;96.40
16863;DHT22;52193;48.216;-1.698;2023-04-30T05:27:07;17.50;96.40
16863;DHT22;52193;48.216;-1.698;2023-04-30T05:29:34;17.50;96.40
16863;DHT22;52193;48.216;-1.698;2023-04-30T05:32:01;17.50;96.40
16863;DHT22;52193;48.216;-1.698;2023-04-30T05:34:28;17.50;96.40
16863;DHT22;52193;48.216;-1.698;2023-04-30T05:36:55;17.50;96.70
16863;DHT22;52193;48.216;-1.698;2023-04-30T05:39:22;17.50;96.40
16863;DHT22;52193;48.216;-1.698;2023-04-30T05:41:49;17.50;96.50
16863;DHT22;52193;48.216;-1.698;2023-04-30T05:44:17;17.50;96.50
16863;DHT22;52193;48.216;-1.698;2023-04-30T05:46:44;17.50;96.60
16863;DHT22;52193;48.216;-1.698;2023-04-30T05:49:11;17.60;96.60
16863;DHT22;52193;48.216;-1.698;2023-04-30T05:51:38;17.50;96.50
16863;DHT22;52193;48.216;-1.698;2023-04-30T05:54:05;17.60;96.60
16863;DHT22;52193;48.216;-1.698;2023-04-30T05:56:32;17.60;96.60
16863;DHT22;52193;48.216;-1.698;2023-04-30T05:58:59;17.70;96.60
16863;DHT22;52193;48.216;-1.698;2023-04-30T06:01:27;17.70;96.60
16863;DHT22;52193;48.216;-1.698;2023-04-30T06:03:54;17.70;96.60
16863;DHT22;52193;48.216;-1.698;2023-04-30T06:06:21;17.70;96.60
16863;DHT22;52193;48.216;-1.698;2023-04-30T06:08:48;17.70;96.70
16863;DHT22;52193;48.216;-1.698;2023-04-30T06:11:15;17.70;96.70
16863;DHT22;52193;48.216;-1.698;2023-04-30T06:13:42;17.70;96.60
16863;DHT22;52193;48.216;-1.698;2023-04-30T06:16:09;17.60;96.70
16863;DHT22;52193;48.216;-1.698;2023-04-30T06:18:37;17.70;96.70
16863;DHT22;52193;48.216;-1.698;2023-04-30T06:21:04;17.70;96.70
16863;DHT22;52193;48.216;-1.698;2023-04-30T06:23:31;17.80;96.70
16863;DHT22;52193;48.216;-1.698;2023-04-30T06:25:58;17.80;96.70
16863;DHT22;52193;48.216;-1.698;2023-04-30T06:28:25;17.80;96.60
16863;DHT22;52193;48.216;-1.698;2023-04-30T06:30:52;18.00;97.00
16863;DHT22;52193;48.216;-1.698;2023-04-30T06:33:20;17.90;96.60
16863;DHT22;52193;48.216;-1.698;2023-04-30T06:35:48;17.90;96.60
16863;DHT22;52193;48.216;-1.698;2023-04-30T06:38:19;17.90;96.70
16863;DHT22;52193;48.216;-1.698;2023-04-30T06:40:46;18.00;96.70
16863;DHT22;52193;48.216;-1.698;2023-04-30T06:43:13;18.00;96.60
16863;DHT22;52193;48.216;-1.698;2023-04-30T06:45:39;18.00;96.70
16863;DHT22;52193;48.216;-1.698;2023-04-30T06:48:06;18.10;96.80
16863;DHT22;52193;48.216;-1.698;2023-04-30T06:50:33;18.20;96.70
16863;DHT22;52193;48.216;-1.698;2023-04-30T06:53:09;18.20;96.70
16863;DHT22;52193;48.216;-1.698;2023-04-30T06:55:36;18.30;96.70
16863;DHT22;52193;48.216;-1.698;2023-04-30T06:58:03;18.40;96.70
16863;DHT22;52193;48.216;-1.698;2023-04-30T07:00:31;18.50;96.70
16863;DHT22;52193;48.216;-1.698;2023-04-30T07:02:58;18.50;96.60
16863;DHT22;52193;48.216;-1.698;2023-04-30T07:05:28;18.50;96.60
16863;DHT22;52193;48.216;-1.698;2023-04-30T07:07:55;18.50;96.60
16863;DHT22;52193;48.216;-1.698;2023-04-30T07:10:23;18.60;96.70
16863;DHT22;52193;48.216;-1.698;2023-04-30T07:12:50;18.60;96.60
16863;DHT22;52193;48.216;-1.698;2023-04-30T07:15:17;18.70;96.60
16863;DHT22;52193;48.216;-1.698;2023-04-30T07:17:44;18.70;96.60
16863;DHT22;52193;48.216;-1.698;2023-04-30T07:20:12;18.80;96.60
16863;DHT22;52193;48.216;-1.698;2023-04-30T07:22:40;18.80;96.60
16863;DHT22;52193;48.216;-1.698;2023-04-30T07:25:09;18.90;96.50
16863;DHT22;52193;48.216;-1.698;2023-04-30T07:27:38;19.00;96.50
16863;DHT22;52193;48.216;-1.698;2023-04-30T07:30:06;19.10;96.50
16863;DHT22;52193;48.216;-1.698;2023-04-30T07:32:34;19.10;96.50
16863;DHT22;52193;48.216;-1.698;2023-04-30T07:35:02;19.20;96.40
16863;DHT22;52193;48.216;-1.698;2023-04-30T07:37:29;19.30;96.40
16863;DHT22;52193;48.216;-1.698;2023-04-30T07:39:56;19.40;96.40
16863;DHT22;52193;48.216;-1.698;2023-04-30T07:42:23;19.50;96.40
16863;DHT22;52193;48.216;-1.698;2023-04-30T07:44:51;19.60;96.30
16863;DHT22;52193;48.216;-1.698;2023-04-30T07:47:18;19.70;96.40
16863;DHT22;52193;48.216;-1.698;2023-04-30T07:49:45;19.70;96.30
16863;DHT22;52193;48.216;-1.698;2023-04-30T07:52:12;19.90;96.20
16863;DHT22;52193;48.216;-1.698;2023-04-30T07:54:39;19.90;96.20
16863;DHT22;52193;48.216;-1.698;2023-04-30T07:57:06;20.00;96.10
16863;DHT22;52193;48.216;-1.698;2023-04-30T07:59:33;20.10;96.20
16863;DHT22;52193;48.216;-1.698;2023-04-30T08:02:02;20.00;96.10
16863;DHT22;52193;48.216;-1.698;2023-04-30T08:04:28;20.10;96.10
16863;DHT22;52193;48.216;-1.698;2023-04-30T08:06:55;20.10;96.10
16863;DHT22;52193;48.216;-1.698;2023-04-30T08:09:22;20.10;96.10
16863;DHT22;52193;48.216;-1.698;2023-04-30T08:11:49;20.20;96.10
16863;DHT22;52193;48.216;-1.698;2023-04-30T08:14:17;20.20;96.00
16863;DHT22;52193;48.216;-1.698;2023-04-30T08:16:44;20.30;96.10
16863;DHT22;52193;48.216;-1.698;2023-04-30T08:19:13;20.40;96.10
16863;DHT22;52193;48.216;-1.698;2023-04-30T08:21:40;20.40;96.10
16863;DHT22;52193;48.216;-1.698;2023-04-30T08:24:07;20.50;96.00
16863;DHT22;52193;48.216;-1.698;2023-04-30T08:26:34;20.50;95.90
16863;DHT22;52193;48.216;-1.698;2023-04-30T08:29:01;20.60;95.90
16863;DHT22;52193;48.216;-1.698;2023-04-30T08:31:27;20.60;95.90
16863;DHT22;52193;48.216;-1.698;2023-04-30T08:33:54;20.70;95.90
16863;DHT22;52193;48.216;-1.698;2023-04-30T08:36:23;20.70;95.80
16863;DHT22;52193;48.216;-1.698;2023-04-30T08:38:50;20.70;95.80
16863;DHT22;52193;48.216;-1.698;2023-04-30T08:41:17;20.90;95.80
16863;DHT22;52193;48.216;-1.698;2023-04-30T08:43:47;20.90;95.70
16863;DHT22;52193;48.216;-1.698;2023-04-30T08:46:17;20.90;95.70
16863;DHT22;52193;48.216;-1.698;2023-04-30T08:48:46;21.10;95.80
16863;DHT22;52193;48.216;-1.698;2023-04-30T08:51:13;21.10;95.70
16863;DHT22;52193;48.216;-1.698;2023-04-30T08:53:43;21.10;95.60
16863;DHT22;52193;48.216;-1.698;2023-04-30T08:56:11;21.10;95.60
16863;DHT22;52193;48.216;-1.698;2023-04-30T08:58:39;21.10;95.60
16863;DHT22;52193;48.216;-1.698;2023-04-30T09:01:07;21.00;95.60
16863;DHT22;52193;48.216;-1.698;2023-04-30T09:03:35;20.90;95.60
16863;DHT22;52193;48.216;-1.698;2023-04-30T09:06:02;21.00;95.60
16863;DHT22;52193;48.216;-1.698;2023-04-30T09:08:43;20.90;95.60
16863;DHT22;52193;48.216;-1.698;2023-04-30T09:11:22;20.90;95.70
16863;DHT22;52193;48.216;-1.698;2023-04-30T09:13:50;21.00;95.70
16863;DHT22;52193;48.216;-1.698;2023-04-30T09:16:18;20.90;95.70
16863;DHT22;52193;48.216;-1.698;2023-04-30T09:18:45;21.00;95.70
16863;DHT22;52193;48.216;-1.698;2023-04-30T09:21:12;21.00;95.80
16863;DHT22;52193;48.216;-1.698;2023-04-30T09:23:55;20.90;95.80
16863;DHT22;52193;48.216;-1.698;2023-04-30T09:26:26;20.90;95.90
16863;DHT22;52193;48.216;-1.698;2023-04-30T09:28:54;20.90;96.00
16863;DHT22;52193;48.216;-1.698;2023-04-30T09:31:22;20.80;96.00
16863;DHT22;52193;48.216;-1.698;2023-04-30T09:33:49;20.80;96.10
16863;DHT22;52193;48.216;-1.698;2023-04-30T09:36:16;20.70;96.20
16863;DHT22;52193;48.216;-1.698;2023-04-30T09:38:43;20.80;96.30
16863;DHT22;52193;48.216;-1.698;2023-04-30T09:41:22;20.80;96.30
16863;DHT22;52193;48.216;-1.698;2023-04-30T09:43:50;20.90;96.50
16863;DHT22;52193;48.216;-1.698;2023-04-30T09:46:18;20.90;96.50
16863;DHT22;52193;48.216;-1.698;2023-04-30T09:48:46;20.80;96.50
16863;DHT22;52193;48.216;-1.698;2023-04-30T09:51:14;20.70;96.60
16863;DHT22;52193;48.216;-1.698;2023-04-30T09:53:42;20.80;96.70
16863;DHT22;52193;48.216;-1.698;2023-04-30T09:56:11;20.70;96.70
16863;DHT22;52193;48.216;-1.698;2023-04-30T09:58:43;20.70;96.80
16863;DHT22;52193;48.216;-1.698;2023-04-30T10:01:13;20.70;97.00
16863;DHT22;52193;48.216;-1.698;2023-04-30T10:03:42;20.70;97.10
16863;DHT22;52193;48.216;-1.698;2023-04-30T10:06:12;20.60;97.10
16863;DHT22;52193;48.216;-1.698;2023-04-30T10:08:41;20.70;97.20
16863;DHT22;52193;48.216;-1.698;2023-04-30T10:11:09;20.70;97.30
16863;DHT22;52193;48.216;-1.698;2023-04-30T10:13:46;20.60;97.30
16863;DHT22;52193;48.216;-1.698;2023-04-30T10:16:19;20.50;97.30
16863;DHT22;52193;48.216;-1.698;2023-04-30T10:18:51;20.50;97.40
16863;DHT22;52193;48.216;-1.698;2023-04-30T10:21:20;20.70;97.40
16863;DHT22;52193;48.216;-1.698;2023-04-30T10:23:48;20.80;97.40
16863;DHT22;52193;48.216;-1.698;2023-04-30T10:26:15;21.00;97.30
16863;DHT22;52193;48.216;-1.698;2023-04-30T10:28:45;20.90;97.20
16863;DHT22;52193;48.216;-1.698;2023-04-30T10:31:16;21.00;97.30
16863;DHT22;52193;48.216;-1.698;2023-04-30T10:33:48;21.20;97.20
16863;DHT22;52193;48.216;-1.698;2023-04-30T10:36:25;21.40;97.30
16863;DHT22;52193;48.216;-1.698;2023-04-30T10:38:55;21.60;97.20
16863;DHT22;52193;48.216;-1.698;2023-04-30T10:41:25;21.70;97.20
16863;DHT22;52193;48.216;-1.698;2023-04-30T10:43:56;21.90;97.30
16863;DHT22;52193;48.216;-1.698;2023-04-30T10:46:24;22.10;97.10
16863;DHT22;52193;48.216;-1.698;2023-04-30T10:48:53;22.30;97.10
16863;DHT22;52193;48.216;-1.698;2023-04-30T10:51:20;22.40;97.10
16863;DHT22;52193;48.216;-1.698;2023-04-30T10:53:49;22.50;97.10
16863;DHT22;52193;48.216;-1.698;2023-04-30T10:56:29;22.60;97.10
16863;DHT22;52193;48.216;-1.698;2023-04-30T10:58:59;22.60;97.10
16863;DHT22;52193;48.216;-1.698;2023-04-30T11:01:27;22.60;97.00
16863;DHT22;52193;48.216;-1.698;2023-04-30T11:04:06;22.50;96.80
16863;DHT22;52193;48.216;-1.698;2023-04-30T11:06:54;22.50;96.90
16863;DHT22;52193;48.216;-1.698;2023-04-30T11:09:34;22.60;96.90
16863;DHT22;52193;48.216;-1.698;2023-04-30T11:12:03;22.60;96.90
16863;DHT22;52193;48.216;-1.698;2023-04-30T11:14:39;22.70;97.00
16863;DHT22;52193;48.216;-1.698;2023-04-30T11:17:08;22.70;96.90
16863;DHT22;52193;48.216;-1.698;2023-04-30T11:19:35;22.60;96.80
16863;DHT22;52193;48.216;-1.698;2023-04-30T11:22:18;22.70;96.80
16863;DHT22;52193;48.216;-1.698;2023-04-30T11:25:03;22.60;96.60
16863;DHT22;52193;48.216;-1.698;2023-04-30T11:27:31;22.60;96.50
16863;DHT22;52193;48.216;-1.698;2023-04-30T11:30:01;22.70;96.50
16863;DHT22;52193;48.216;-1.698;2023-04-30T11:32:32;22.60;96.40
16863;DHT22;52193;48.216;-1.698;2023-04-30T11:35:00;22.70;96.50
16863;DHT22;52193;48.216;-1.698;2023-04-30T11:37:32;22.70;96.50
16863;DHT22;52193;48.216;-1.698;2023-04-30T11:40:01;22.70;96.50
16863;DHT22;52193;48.216;-1.698;2023-04-30T11:42:29;22.60;96.40
16863;DHT22;52193;48.216;-1.698;2023-04-30T11:45:05;22.80;96.50
16863;DHT22;52193;48.216;-1.698;2023-04-30T11:47:40;22.90;96.40
16863;DHT22;52193;48.216;-1.698;2023-04-30T11:50:08;23.00;96.30
16863;DHT22;52193;48.216;-1.698;2023-04-30T11:52:36;23.10;96.30
16863;DHT22;52193;48.216;-1.698;2023-04-30T11:55:11;23.20;96.20
16863;DHT22;52193;48.216;-1.698;2023-04-30T11:57:40;23.20;96.10
16863;DHT22;52193;48.216;-1.698;2023-04-30T12:00:10;23.10;96.00
16863;DHT22;52193;48.216;-1.698;2023-04-30T12:02:38;23.20;96.00
16863;DHT22;52193;48.216;-1.698;2023-04-30T12:05:11;23.30;95.90
16863;DHT22;52193;48.216;-1.698;2023-04-30T12:07:38;23.20;95.80
16863;DHT22;52193;48.216;-1.698;2023-04-30T12:10:06;23.10;95.70
16863;DHT22;52193;48.216;-1.698;2023-04-30T12:12:35;22.80;95.60
16863;DHT22;52193;48.216;-1.698;2023-04-30T12:15:14;22.90;95.80
16863;DHT22;52193;48.216;-1.698;2023-04-30T12:17:42;22.80;95.80
16863;DHT22;52193;48.216;-1.698;2023-04-30T12:20:11;22.70;95.80
16863;DHT22;52193;48.216;-1.698;2023-04-30T12:22:39;22.70;95.70
16863;DHT22;52193;48.216;-1.698;2023-04-30T12:25:08;22.90;95.70
16863;DHT22;52193;48.216;-1.698;2023-04-30T12:27:38;23.00;95.60
16863;DHT22;52193;48.216;-1.698;2023-04-30T12:30:07;23.00;95.30
16863;DHT22;52193;48.216;-1.698;2023-04-30T12:32:40;23.00;95.30
16863;DHT22;52193;48.216;-1.698;2023-04-30T12:35:08;23.10;95.20
16863;DHT22;52193;48.216;-1.698;2023-04-30T12:37:35;23.00;95.10
16863;DHT22;52193;48.216;-1.698;2023-04-30T12:40:08;23.10;95.20
16863;DHT22;52193;48.216;-1.698;2023-04-30T12:42:35;23.20;95.20
16863;DHT22;52193;48.216;-1.698;2023-04-30T12:45:02;23.30;95.20
16863;DHT22;52193;48.216;-1.698;2023-04-30T12:47:30;23.10;95.00
16863;DHT22;52193;48.216;-1.698;2023-04-30T12:49:58;23.00;94.90
16863;DHT22;52193;48.216;-1.698;2023-04-30T12:52:25;23.20;94.90
16863;DHT22;52193;48.216;-1.698;2023-04-30T12:54:52;23.50;95.20
16863;DHT22;52193;48.216;-1.698;2023-04-30T12:57:20;23.60;94.90
16863;DHT22;52193;48.216;-1.698;2023-04-30T12:59:58;23.50;95.00
16863;DHT22;52193;48.216;-1.698;2023-04-30T13:02:27;23.70;94.90
16863;DHT22;52193;48.216;-1.698;2023-04-30T13:04:57;23.70;94.70
16863;DHT22;52193;48.216;-1.698;2023-04-30T13:07:25;23.90;94.60
16863;DHT22;52193;48.216;-1.698;2023-04-30T13:09:51;24.30;94.40
16863;DHT22;52193;48.216;-1.698;2023-04-30T13:12:19;24.50;94.30
16863;DHT22;52193;48.216;-1.698;2023-04-30T13:14:45;24.60;94.30
16863;DHT22;52193;48.216;-1.698;2023-04-30T13:17:12;24.60;94.20
16863;DHT22;52193;48.216;-1.698;2023-04-30T13:19:39;24.70;94.10
16863;DHT22;52193;48.216;-1.698;2023-04-30T13:22:08;24.60;94.00
16863;DHT22;52193;48.216;-1.698;2023-04-30T13:24:35;24.60;93.90
16863;DHT22;52193;48.216;-1.698;2023-04-30T13:27:02;24.50;93.70
16863;DHT22;52193;48.216;-1.698;2023-04-30T13:29:29;24.40;93.70
16863;DHT22;52193;48.216;-1.698;2023-04-30T13:31:56;24.70;93.80
16863;DHT22;52193;48.216;-1.698;2023-04-30T13:34:23;26.10;93.00
16863;DHT22;52193;48.216;-1.698;2023-04-30T13:36:50;26.40;92.50
16863;DHT22;52193;48.216;-1.698;2023-04-30T13:39:19;27.20;92.00
16863;DHT22;52193;48.216;-1.698;2023-04-30T13:41:46;29.30;90.90
16863;DHT22;52193;48.216;-1.698;2023-04-30T13:44:14;29.80;89.40
16863;DHT22;52193;48.216;-1.698;2023-04-30T13:46:41;29.50;88.40
16863;DHT22;52193;48.216;-1.698;2023-04-30T13:49:08;29.50;88.60
16863;DHT22;52193;48.216;-1.698;2023-04-30T13:51:36;30.40;86.90
16863;DHT22;52193;48.216;-1.698;2023-04-30T13:54:03;29.90;86.40
16863;DHT22;52193;48.216;-1.698;2023-04-30T13:56:31;30.80;85.20
16863;DHT22;52193;48.216;-1.698;2023-04-30T13:58:58;31.90;83.50
16863;DHT22;52193;48.216;-1.698;2023-04-30T14:01:25;31.50;84.30
16863;DHT22;52193;48.216;-1.698;2023-04-30T14:03:52;32.00;83.10
16863;DHT22;52193;48.216;-1.698;2023-04-30T14:06:19;31.60;83.10
16863;DHT22;52193;48.216;-1.698;2023-04-30T14:08:46;30.90;83.70
16863;DHT22;52193;48.216;-1.698;2023-04-30T14:11:13;30.30;84.10
16863;DHT22;52193;48.216;-1.698;2023-04-30T14:13:42;29.90;83.90
16863;DHT22;52193;48.216;-1.698;2023-04-30T14:16:09;29.70;83.80
16863;DHT22;52193;48.216;-1.698;2023-04-30T14:18:36;29.50;83.90
16863;DHT22;52193;48.216;-1.698;2023-04-30T14:21:03;29.30;84.10
16863;DHT22;52193;48.216;-1.698;2023-04-30T14:23:29;30.20;82.90
16863;DHT22;52193;48.216;-1.698;2023-04-30T14:25:56;31.40;81.30
16863;DHT22;52193;48.216;-1.698;2023-04-30T14:28:23;32.40;79.50
16863;DHT22;52193;48.216;-1.698;2023-04-30T14:30:51;33.40;78.00
16863;DHT22;52193;48.216;-1.698;2023-04-30T14:33:18;33.10;77.50
16863;DHT22;52193;48.216;-1.698;2023-04-30T14:35:45;32.80;76.90
16863;DHT22;52193;48.216;-1.698;2023-04-30T14:38:12;32.50;77.10
16863;DHT22;52193;48.216;-1.698;2023-04-30T14:40:39;32.50;77.30
16863;DHT22;52193;48.216;-1.698;2023-04-30T14:43:06;32.30;77.30
16863;DHT22;52193;48.216;-1.698;2023-04-30T14:45:33;32.10;77.20
16863;DHT22;52193;48.216;-1.698;2023-04-30T14:48:02;31.70;77.20
16863;DHT22;52193;48.216;-1.698;2023-04-30T14:50:29;31.40;77.50
16863;DHT22;52193;48.216;-1.698;2023-04-30T14:52:56;31.40;77.90
16863;DHT22;52193;48.216;-1.698;2023-04-30T14:55:23;31.90;78.00
16863;DHT22;52193;48.216;-1.698;2023-04-30T14:57:50;32.80;77.80
16863;DHT22;52193;48.216;-1.698;2023-04-30T15:00:17;33.50;77.10
16863;DHT22;52193;48.216;-1.698;2023-04-30T15:02:44;33.60;76.00
16863;DHT22;52193;48.216;-1.698;2023-04-30T15:05:12;33.80;75.00
16863;DHT22;52193;48.216;-1.698;2023-04-30T15:07:39;33.70;74.00
16863;DHT22;52193;48.216;-1.698;2023-04-30T15:10:07;33.20;73.80
16863;DHT22;52193;48.216;-1.698;2023-04-30T15:12:34;33.20;74.30
16863;DHT22;52193;48.216;-1.698;2023-04-30T15:15:01;33.20;74.20
16863;DHT22;52193;48.216;-1.698;2023-04-30T15:17:29;33.00;74.10
16863;DHT22;52193;48.216;-1.698;2023-04-30T15:19:56;32.80;74.10
16863;DHT22;52193;48.216;-1.698;2023-04-30T15:22:27;32.80;74.30